createdAt,value
2022-11-27T00:00:46.985Z,102037.72
2022-11-27T00:03:13.509Z,102034.50
2022-11-27T00:05:40.125Z,102024.06
2022-11-27T00:08:06.518Z,102023.31
2022-11-27T00:10:33.112Z,102020.94
2022-11-27T00:12:59.607Z,102018.53
2022-11-27T00:15:27.954Z,102018.91
2022-11-27T00:17:54.263Z,102017.03
2022-11-27T00:20:20.664Z,102015.16
2022-11-27T00:22:48.448Z,102005.78
2022-11-27T00:25:14.874Z,102003.06
2022-11-27T00:27:41.290Z,102006.44
2022-11-27T00:30:08.327Z,101996.25
2022-11-27T00:32:37.197Z,101993.53
2022-11-27T00:35:03.701Z,101994.16
2022-11-27T00:37:30.092Z,101991.44
2022-11-27T00:39:57.012Z,102001.78
2022-11-27T00:42:23.393Z,101990.44
2022-11-27T00:44:49.761Z,101984.41
2022-11-27T00:47:16.266Z,101992.81
2022-11-27T00:49:42.705Z,101990.94
2022-11-27T00:52:09.576Z,101987.41
2022-11-27T00:54:36.112Z,101997.41
2022-11-27T00:57:02.616Z,101986.38
2022-11-27T00:59:29.365Z,101991.72
2022-11-27T01:01:55.900Z,101986.75
2022-11-27T01:04:22.603Z,101995.66
2022-11-27T01:06:50.232Z,101986.81
2022-11-27T01:09:16.871Z,101982.94
2022-11-27T01:11:43.967Z,101980.75
2022-11-27T01:14:17.762Z,101984.41
2022-11-27T01:16:44.392Z,101982.75
2022-11-27T01:19:12.598Z,101992.78
2022-11-27T01:21:39.516Z,101991.44
2022-11-27T01:24:06.854Z,101984.81
2022-11-27T01:26:33.290Z,101990.66
2022-11-27T01:29:00.133Z,101996.78
2022-11-27T01:31:29.876Z,101990.16
2022-11-27T01:33:58.865Z,101978.56
2022-11-27T01:36:26.275Z,101973.31
2022-11-27T01:38:54.162Z,101977.50
2022-11-27T01:41:23.040Z,101975.03
2022-11-27T01:43:52.339Z,101977.25
2022-11-27T01:46:37.514Z,101971.75
2022-11-27T01:49:10.071Z,101976.47
2022-11-27T01:51:44.944Z,101967.34
2022-11-27T01:54:11.947Z,101961.81
2022-11-27T01:56:40.290Z,101961.81
2022-11-27T01:59:07.739Z,101956.56
2022-11-27T02:01:34.280Z,101952.41
2022-11-27T02:04:03.354Z,101962.69
2022-11-27T02:06:31.067Z,101960.22
2022-11-27T02:08:57.732Z,101961.59
2022-11-27T02:11:51.428Z,101956.94
2022-11-27T02:14:38.385Z,101947.56
2022-11-27T02:17:21.392Z,101949.50
2022-11-27T02:20:13.626Z,101954.88
2022-11-27T02:23:13.623Z,101949.91
2022-11-27T02:26:10.668Z,101938.28
2022-11-27T02:28:55.569Z,101926.69
2022-11-27T02:31:29.309Z,101929.50
2022-11-27T02:34:02.539Z,101928.13
2022-11-27T02:36:31.505Z,101919.59
2022-11-27T02:39:10.664Z,101916.56
2022-11-27T02:41:49.427Z,101907.75
2022-11-27T02:44:18.615Z,101902.78
2022-11-27T02:46:47.296Z,101898.63
2022-11-27T02:49:18.645Z,101899.22
2022-11-27T02:51:52.121Z,101895.63
2022-11-27T02:54:24.171Z,101892.31
2022-11-27T02:56:52.558Z,101883.50
2022-11-27T02:59:20.722Z,101883.78
2022-11-27T03:01:54.526Z,101880.47
2022-11-27T03:04:26.939Z,101872.47
2022-11-27T03:07:00.082Z,101857.25
2022-11-27T03:09:34.266Z,101860.03
2022-11-27T03:12:01.671Z,101844.56
2022-11-27T03:14:28.825Z,101851.22
2022-11-27T03:17:05.993Z,101849.84
2022-11-27T03:19:45.653Z,101838.78
2022-11-27T03:22:12.551Z,101842.09
2022-11-27T03:24:39.697Z,101836.00
2022-11-27T03:27:07.399Z,101836.81
2022-11-27T03:29:48.065Z,101831.91
2022-11-27T03:32:14.838Z,101823.28
2022-11-27T03:34:41.767Z,101818.06
2022-11-27T03:37:08.770Z,101816.94
2022-11-27T03:39:35.438Z,101821.09
2022-11-27T03:42:32.519Z,101825.28
2022-11-27T03:45:22.080Z,101828.63
2022-11-27T03:48:39.759Z,101820.91
2022-11-27T03:51:52.495Z,101821.50
2022-11-27T03:54:55.612Z,101824.81
2022-11-27T03:57:28.721Z,101826.75
2022-11-27T04:00:00.179Z,101819.06
2022-11-27T04:02:37.626Z,101821.28
2022-11-27T04:05:04.333Z,101814.63
2022-11-27T04:07:30.855Z,101814.91
2022-11-27T04:09:57.216Z,101812.97
2022-11-27T04:12:23.503Z,101813.28
2022-11-27T04:14:49.846Z,101806.63
2022-11-27T04:17:16.279Z,101802.75
2022-11-27T04:19:42.790Z,101809.09
2022-11-27T04:22:09.103Z,101806.88
2022-11-27T04:24:35.638Z,101802.47
2022-11-27T04:27:02.003Z,101806.88
2022-11-27T04:29:28.563Z,101802.47
2022-11-27T04:31:55.043Z,101809.09
2022-11-27T04:34:22.920Z,101812.97
2022-11-27T04:36:49.300Z,101804.69
2022-11-27T04:39:16.021Z,101809.41
2022-11-27T04:41:42.569Z,101798.03
2022-11-27T04:44:08.947Z,101794.44
2022-11-27T04:46:35.492Z,101796.66
2022-11-27T04:49:02.085Z,101790.00
2022-11-27T04:51:28.496Z,101773.09
2022-11-27T04:53:55.320Z,101773.34
2022-11-27T04:56:21.997Z,101770.84
2022-11-27T04:58:48.521Z,101762.50
2022-11-27T05:01:15.528Z,101769.91
2022-11-27T05:03:42.728Z,101764.63
2022-11-27T05:06:09.267Z,101746.34
2022-11-27T05:08:35.652Z,101746.28
2022-11-27T05:11:07.786Z,101745.69
2022-11-27T05:13:34.749Z,101738.44
2022-11-27T05:16:01.586Z,101729.56
2022-11-27T05:18:33.918Z,101723.44
2022-11-27T05:21:02.962Z,101716.81
2022-11-27T05:23:29.966Z,101719.78
2022-11-27T05:25:56.625Z,101720.31
2022-11-27T05:28:26.913Z,101714.50
2022-11-27T05:30:53.687Z,101709.47
2022-11-27T05:33:20.207Z,101698.94
2022-11-27T05:35:46.580Z,101691.47
2022-11-27T05:38:13.245Z,101693.91
2022-11-27T05:40:39.777Z,101696.41
2022-11-27T05:43:06.199Z,101697.25
2022-11-27T05:45:32.530Z,101688.63
2022-11-27T05:47:58.850Z,101686.38
2022-11-27T05:50:25.176Z,101692.75
2022-11-27T05:52:51.686Z,101692.75
2022-11-27T05:55:18.097Z,101685.28
2022-11-27T05:57:44.433Z,101701.88
2022-11-27T06:00:11.452Z,101704.34
2022-11-27T06:02:37.914Z,101700.44
2022-11-27T06:05:04.534Z,101694.09
2022-11-27T06:07:32.088Z,101687.16
2022-11-27T06:09:58.592Z,101684.31
2022-11-27T06:12:25.160Z,101677.34
2022-11-27T06:14:51.448Z,101681.75
2022-11-27T06:17:18.064Z,101668.16
2022-11-27T06:19:44.582Z,101680.59
2022-11-27T06:22:11.091Z,101669.72
2022-11-27T06:24:37.604Z,101672.72
2022-11-27T06:27:04.328Z,101669.38
2022-11-27T06:29:30.682Z,101669.06
2022-11-27T06:31:57.093Z,101671.25
2022-11-27T06:34:23.684Z,101676.47
2022-11-27T06:36:51.455Z,101672.28
2022-11-27T06:39:17.806Z,101673.09
2022-11-27T06:41:44.123Z,101680.28
2022-11-27T06:44:10.789Z,101669.53
2022-11-27T06:46:37.124Z,101662.84
2022-11-27T06:49:03.772Z,101668.38
2022-11-27T06:51:32.336Z,101666.44
2022-11-27T06:53:59.424Z,101669.72
2022-11-27T06:56:27.824Z,101667.19
2022-11-27T06:58:56.298Z,101672.72
2022-11-27T07:01:23.249Z,101654.97
2022-11-27T07:03:49.801Z,101656.84
2022-11-27T07:06:21.014Z,101654.06
2022-11-27T07:08:48.211Z,101657.38
2022-11-27T07:11:18.135Z,101652.84
2022-11-27T07:13:45.574Z,101644.50
2022-11-27T07:16:12.940Z,101652.41
2022-11-27T07:18:50.977Z,101650.97
2022-11-27T07:21:17.999Z,101647.22
2022-11-27T07:23:45.018Z,101648.00
2022-11-27T07:26:14.373Z,101639.88
2022-11-27T07:28:43.747Z,101635.09
2022-11-27T07:31:11.592Z,101630.56
2022-11-27T07:33:38.050Z,101632.41
2022-11-27T07:36:08.654Z,101637.56
2022-11-27T07:38:35.037Z,101637.47
2022-11-27T07:41:03.333Z,101627.44
2022-11-27T07:43:30.812Z,101640.06
2022-11-27T07:45:57.600Z,101634.41
2022-11-27T07:48:24.412Z,101632.69
2022-11-27T07:50:50.951Z,101626.72
2022-11-27T07:53:17.515Z,101617.97
2022-11-27T07:55:43.825Z,101615.94
2022-11-27T07:58:10.141Z,101615.50
2022-11-27T08:00:37.062Z,101604.28
2022-11-27T08:03:03.614Z,101608.31
2022-11-27T08:05:30.417Z,101604.28
2022-11-27T08:08:00.470Z,101615.28
2022-11-27T08:10:27.276Z,101610.09
2022-11-27T08:12:53.863Z,101594.19
2022-11-27T08:15:20.449Z,101590.97
2022-11-27T08:17:46.911Z,101594.75
2022-11-27T08:20:14.585Z,101597.41
2022-11-27T08:22:41.039Z,101588.97
2022-11-27T08:25:07.943Z,101589.97
2022-11-27T08:27:34.551Z,101585.94
2022-11-27T08:30:02.577Z,101574.41
2022-11-27T08:32:28.942Z,101572.50
2022-11-27T08:34:55.492Z,101564.25
2022-11-27T08:37:22.175Z,101561.00
2022-11-27T08:39:48.555Z,101561.88
2022-11-27T08:42:15.021Z,101555.22
2022-11-27T08:44:41.655Z,101547.75
2022-11-27T08:47:08.323Z,101549.16
2022-11-27T08:49:34.964Z,101535.25
2022-11-27T08:52:01.978Z,101530.72
2022-11-27T08:54:28.322Z,101529.78
2022-11-27T08:56:54.603Z,101526.88
2022-11-27T08:59:20.987Z,101526.72
2022-11-27T09:01:51.217Z,101526.31
2022-11-27T09:04:17.659Z,101530.56
2022-11-27T09:06:45.355Z,101525.66
2022-11-27T09:09:11.924Z,101515.16
2022-11-27T09:11:38.492Z,101517.75
2022-11-27T09:14:05.791Z,101516.75
2022-11-27T09:16:33.468Z,101510.97
2022-11-27T09:19:00.001Z,101515.03
2022-11-27T09:21:28.269Z,101503.50
2022-11-27T09:23:55.515Z,101503.97
2022-11-27T09:26:23.800Z,101503.94
2022-11-27T09:28:50.495Z,101501.13
2022-11-27T09:31:17.252Z,101491.75
2022-11-27T09:33:44.207Z,101496.31
2022-11-27T09:36:13.562Z,101497.28
2022-11-27T09:38:40.105Z,101491.84
2022-11-27T09:41:24.886Z,101500.22
2022-11-27T09:44:06.820Z,101508.72
2022-11-27T09:46:40.158Z,101514.16
2022-11-27T09:49:10.911Z,101521.00
2022-11-27T09:51:45.357Z,101517.06
2022-11-27T09:54:26.356Z,101516.88
2022-11-27T09:56:55.874Z,101515.84
2022-11-27T09:59:29.916Z,101514.03
2022-11-27T10:01:56.979Z,101519.41
2022-11-27T10:04:24.965Z,101510.00
2022-11-27T10:07:03.325Z,101504.72
2022-11-27T10:09:51.258Z,101504.03
2022-11-27T10:12:31.214Z,101495.44
2022-11-27T10:15:06.734Z,101485.56
2022-11-27T10:17:42.576Z,101494.41
2022-11-27T10:20:30.255Z,101486.84
2022-11-27T10:23:18.255Z,101481.41
2022-11-27T10:25:50.597Z,101497.16
2022-11-27T10:28:44.343Z,101482.34
2022-11-27T10:31:18.238Z,101485.28
2022-11-27T10:33:53.393Z,101476.09
2022-11-27T10:36:39.777Z,101475.75
2022-11-27T10:39:15.591Z,101474.72
2022-11-27T10:41:52.432Z,101466.78
2022-11-27T10:44:32.255Z,101455.28
2022-11-27T10:47:03.038Z,101457.38
2022-11-27T10:49:30.459Z,101457.97
2022-11-27T10:51:56.992Z,101467.69
2022-11-27T10:54:28.054Z,101464.22
2022-11-27T10:57:21.579Z,101456.75
2022-11-27T11:00:01.831Z,101449.00
2022-11-27T11:02:37.335Z,101448.41
2022-11-27T11:05:40.871Z,101440.97
2022-11-27T11:08:19.738Z,101441.56
2022-11-27T11:11:02.929Z,101438.91
2022-11-27T11:13:41.475Z,101443.78
2022-11-27T11:16:14.508Z,101429.25
2022-11-27T11:18:44.702Z,101429.84
2022-11-27T11:21:22.981Z,101429.84
2022-11-27T11:24:18.942Z,101422.63
2022-11-27T11:26:49.378Z,101417.94
2022-11-27T11:29:30.393Z,101413.50
2022-11-27T11:31:59.425Z,101410.03
2022-11-27T11:34:29.064Z,101413.28
2022-11-27T11:37:08.324Z,101400.81
2022-11-27T11:39:45.480Z,101392.06
2022-11-27T11:42:24.398Z,101391.69
2022-11-27T11:45:10.937Z,101385.28
2022-11-27T11:47:46.054Z,101382.16
2022-11-27T11:50:14.756Z,101378.19
2022-11-27T11:52:59.555Z,101376.22
2022-11-27T11:55:31.298Z,101373.06
2022-11-27T11:58:28.850Z,101366.66
2022-11-27T12:01:26.331Z,101358.38
2022-11-27T12:04:04.708Z,101350.44
2022-11-27T12:06:44.735Z,101352.19
2022-11-27T12:09:41.185Z,101351.38
2022-11-27T12:12:21.913Z,101335.16
2022-11-27T12:15:06.743Z,101331.16
2022-11-27T12:17:57.471Z,101324.19
2022-11-27T12:20:56.408Z,101323.13
2022-11-27T12:23:45.262Z,101318.22
2022-11-27T12:26:11.555Z,101315.16
2022-11-27T12:28:59.347Z,101299.25
2022-11-27T12:31:38.122Z,101292.50
2022-11-27T12:34:05.667Z,101292.72
2022-11-27T12:36:57.145Z,101290.03
2022-11-27T12:39:49.690Z,101279.75
2022-11-27T12:42:54.724Z,101284.19
2022-11-27T12:45:35.179Z,101274.25
2022-11-27T12:48:12.074Z,101271.91
2022-11-27T12:50:44.445Z,101271.56
2022-11-27T12:53:50.325Z,101266.75
2022-11-27T12:56:31.603Z,101268.16
2022-11-27T12:59:16.806Z,101254.59
2022-11-27T13:01:48.485Z,101251.53
2022-11-27T13:04:33.760Z,101242.75
2022-11-27T13:07:04.657Z,101245.66
2022-11-27T13:10:02.960Z,101239.69
2022-11-27T13:13:04.964Z,101239.88
2022-11-27T13:15:54.799Z,101230.41
2022-11-27T13:18:36.885Z,101225.16
2022-11-27T13:21:13.098Z,101224.31
2022-11-27T13:23:39.619Z,101213.13
2022-11-27T13:26:15.760Z,101194.94
2022-11-27T13:28:46.467Z,101178.16
2022-11-27T13:31:20.753Z,101168.00
2022-11-27T13:33:49.626Z,101147.97
2022-11-27T13:36:33.327Z,101140.19
2022-11-27T13:39:02.948Z,101140.19
2022-11-27T13:41:41.018Z,101152.84
2022-11-27T13:44:26.103Z,101157.09
2022-11-27T13:46:55.313Z,101154.66
2022-11-27T13:49:32.044Z,101159.69
2022-11-27T13:52:15.726Z,101153.53
2022-11-27T13:54:55.802Z,101143.75
2022-11-27T13:57:23.492Z,101138.16
2022-11-27T14:00:12.450Z,101110.31
2022-11-27T14:02:46.195Z,101128.28
2022-11-27T14:05:15.789Z,101132.59
2022-11-27T14:07:49.141Z,101126.47
2022-11-27T14:10:19.858Z,101131.63
2022-11-27T14:12:57.192Z,101136.66
2022-11-27T14:15:26.543Z,101135.47
2022-11-27T14:18:04.571Z,101132.25
2022-11-27T14:20:36.173Z,101126.66
2022-11-27T14:23:18.018Z,101133.06
2022-11-27T14:25:45.022Z,101133.88
2022-11-27T14:28:26.446Z,101128.97
2022-11-27T14:30:57.079Z,101119.88
2022-11-27T14:33:25.644Z,101114.28
2022-11-27T14:35:56.901Z,101109.13
2022-11-27T14:38:24.747Z,101114.34
2022-11-27T14:40:56.915Z,101116.72
2022-11-27T14:43:28.357Z,101102.97
2022-11-27T14:46:01.853Z,101115.25
2022-11-27T14:48:43.005Z,101105.13
2022-11-27T14:51:16.354Z,101113.88
2022-11-27T14:53:44.023Z,101115.88
2022-11-27T14:56:10.905Z,101111.78
2022-11-27T14:58:43.070Z,101114.13
2022-11-27T15:01:24.260Z,101115.22
2022-11-27T15:03:57.107Z,101105.19
2022-11-27T15:06:25.472Z,101114.41
2022-11-27T15:09:15.811Z,101129.53
2022-11-27T15:11:55.164Z,101131.19
2022-11-27T15:14:23.804Z,101129.53
2022-11-27T15:16:52.700Z,101129.09
2022-11-27T15:19:27.883Z,101133.44
2022-11-27T15:21:54.648Z,101127.47
2022-11-27T15:24:36.930Z,101123.75
2022-11-27T15:27:15.198Z,101107.31
2022-11-27T15:29:59.969Z,101102.06
2022-11-27T15:32:28.145Z,101092.53
2022-11-27T15:34:55.007Z,101089.25
2022-11-27T15:37:30.505Z,101084.72
2022-11-27T15:39:58.760Z,101085.91
2022-11-27T15:42:28.696Z,101082.66
2022-11-27T15:44:57.872Z,101085.78
2022-11-27T15:47:30.078Z,101086.53
2022-11-27T15:49:57.009Z,101100.50
2022-11-27T15:52:24.276Z,101091.66
2022-11-27T15:54:53.933Z,101090.03
2022-11-27T15:57:20.246Z,101089.56
2022-11-27T15:59:47.637Z,101085.13
2022-11-27T16:02:17.683Z,101082.34
2022-11-27T16:04:44.751Z,101087.94
2022-11-27T16:07:11.332Z,101093.06
2022-11-27T16:09:39.841Z,101089.81
2022-11-27T16:12:06.490Z,101079.78
2022-11-27T16:14:32.995Z,101087.03
2022-11-27T16:17:00.510Z,101083.31
2022-11-27T16:19:27.473Z,101083.56
2022-11-27T16:21:53.810Z,101084.97
2022-11-27T16:24:20.349Z,101067.28
2022-11-27T16:26:46.963Z,101075.88
2022-11-27T16:29:13.321Z,101061.81
2022-11-27T16:31:40.126Z,101050.06
2022-11-27T16:34:06.535Z,101028.75
2022-11-27T16:36:33.482Z,101021.78
2022-11-27T16:39:00.112Z,101047.16
2022-11-27T16:41:27.078Z,101043.81
2022-11-27T16:43:56.091Z,101046.03
2022-11-27T16:46:28.465Z,101038.25
2022-11-27T16:48:56.175Z,101030.56
2022-11-27T16:51:25.627Z,101033.25
2022-11-27T16:53:54.778Z,101029.50
2022-11-27T16:56:23.902Z,101021.84
2022-11-27T16:58:51.344Z,101014.97
2022-11-27T17:01:23.607Z,101007.31
2022-11-27T17:03:50.502Z,101003.25
2022-11-27T17:06:20.061Z,100996.41
2022-11-27T17:08:46.926Z,100986.72
2022-11-27T17:11:17.554Z,100988.22
2022-11-27T17:13:44.674Z,100983.81
2022-11-27T17:16:11.605Z,100980.56
2022-11-27T17:18:42.419Z,100981.75
2022-11-27T17:21:27.293Z,100976.03
2022-11-27T17:23:59.255Z,100985.22
2022-11-27T17:26:27.838Z,100992.44
2022-11-27T17:28:57.553Z,100987.66
2022-11-27T17:31:27.098Z,100979.41
2022-11-27T17:33:57.018Z,100980.09
2022-11-27T17:36:25.021Z,100981.28
2022-11-27T17:38:52.201Z,100974.88
2022-11-27T17:41:19.010Z,100965.69
2022-11-27T17:43:45.583Z,100969.97
2022-11-27T17:46:32.637Z,100961.03
2022-11-27T17:49:01.657Z,100953.94
2022-11-27T17:51:31.265Z,100957.44
2022-11-27T17:54:01.020Z,100948.25
2022-11-27T17:56:28.992Z,100955.34
2022-11-27T17:58:55.603Z,100950.91
2022-11-27T18:01:24.374Z,100943.25
2022-11-27T18:03:53.892Z,100934.09
2022-11-27T18:06:22.962Z,100928.03
2022-11-27T18:08:49.586Z,100925.13
2022-11-27T18:11:19.360Z,100924.66
2022-11-27T18:13:46.183Z,100918.28
2022-11-27T18:16:15.204Z,100919.78
2022-11-27T18:18:43.481Z,100908.16
2022-11-27T18:21:17.871Z,100914.09
2022-11-27T18:24:20.768Z,100892.91
2022-11-27T18:27:00.538Z,100898.84
2022-11-27T18:29:19.826Z,100884.44
2022-11-27T18:31:46.982Z,100888.72
2022-11-27T18:34:13.496Z,100873.50
2022-11-27T18:36:39.917Z,100884.19
2022-11-27T18:39:06.329Z,100882.56
2022-11-27T18:41:32.977Z,100891.28
2022-11-27T18:43:59.287Z,100876.06
2022-11-27T18:46:25.969Z,100866.06
2022-11-27T18:48:52.759Z,100871.63
2022-11-27T18:51:21.507Z,100867.56
2022-11-27T18:53:48.062Z,100865.63
2022-11-27T18:56:24.397Z,100872.69
2022-11-27T18:58:50.924Z,100863.16
2022-11-27T19:01:20.112Z,100865.13
2022-11-27T19:03:47.583Z,100853.97
2022-11-27T19:06:16.931Z,100845.16
2022-11-27T19:08:44.446Z,100837.94
2022-11-27T19:11:13.040Z,100844.22
2022-11-27T19:13:39.909Z,100845.03
2022-11-27T19:16:12.803Z,100847.81
2022-11-27T19:18:39.243Z,100848.19
2022-11-27T19:21:14.856Z,100845.63
2022-11-27T19:23:42.244Z,100844.47
2022-11-27T19:26:10.717Z,100834.00
2022-11-27T19:28:38.750Z,100834.34
2022-11-27T19:31:07.945Z,100819.13
2022-11-27T19:33:36.280Z,100814.34
2022-11-27T19:36:15.194Z,100812.63
2022-11-27T19:38:42.724Z,100801.47
2022-11-27T19:41:17.260Z,100804.16
2022-11-27T19:43:44.971Z,100793.00
2022-11-27T19:46:20.116Z,100787.66
2022-11-27T19:48:47.857Z,100783.72
2022-11-27T19:51:15.694Z,100777.66
2022-11-27T19:53:43.135Z,100780.00
2022-11-27T19:56:10.516Z,100772.00
2022-11-27T19:58:37.351Z,100766.41
2022-11-27T20:01:10.640Z,100762.34
2022-11-27T20:03:37.456Z,100775.94
2022-11-27T20:06:06.510Z,100769.53
2022-11-27T20:08:33.487Z,100767.91
2022-11-27T20:11:00.825Z,100763.97
2022-11-27T20:13:27.443Z,100768.41
2022-11-27T20:15:54.089Z,100789.88
2022-11-27T20:18:21.054Z,100765.94
2022-11-27T20:20:47.612Z,100762.00
2022-11-27T20:23:14.849Z,100746.91
2022-11-27T20:25:49.261Z,100751.66
2022-11-27T20:28:15.629Z,100747.72
2022-11-27T20:30:44.686Z,100741.34
2022-11-27T20:33:13.081Z,100748.88
2022-11-27T20:35:42.752Z,100755.16
2022-11-27T20:38:09.261Z,100753.16
2022-11-27T20:40:38.546Z,100751.06
2022-11-27T20:43:05.079Z,100753.03
2022-11-27T20:45:40.000Z,100762.13
2022-11-27T20:48:07.468Z,100767.69
2022-11-27T20:50:36.162Z,100768.88
2022-11-27T20:53:02.977Z,100755.75
2022-11-27T20:55:29.593Z,100756.88
2022-11-27T20:57:56.378Z,100748.19
2022-11-27T21:00:23.194Z,100747.84
2022-11-27T21:02:49.685Z,100738.31
2022-11-27T21:05:17.566Z,100721.25
2022-11-27T21:07:43.963Z,100721.69
2022-11-27T21:10:14.083Z,100718.56
2022-11-27T21:12:40.587Z,100711.84
2022-11-27T21:15:08.837Z,100717.06
2022-11-27T21:17:36.960Z,100709.94
2022-11-27T21:20:05.956Z,100713.22
2022-11-27T21:22:32.549Z,100708.44
2022-11-27T21:24:59.285Z,100700.09
2022-11-27T21:27:25.616Z,100693.72
2022-11-27T21:29:52.195Z,100684.88
2022-11-27T21:32:22.304Z,100684.41
2022-11-27T21:34:48.874Z,100685.91
2022-11-27T21:37:15.867Z,100692.66
2022-11-27T21:39:44.021Z,100685.84
2022-11-27T21:42:10.453Z,100688.13
2022-11-27T21:44:42.112Z,100677.72
2022-11-27T21:47:11.903Z,100685.94
2022-11-27T21:49:39.841Z,100686.66
2022-11-27T21:52:07.142Z,100685.84
2022-11-27T21:54:34.722Z,100673.06
2022-11-27T21:57:01.358Z,100675.06
2022-11-27T21:59:27.787Z,100669.84
2022-11-27T22:01:56.917Z,100667.38
2022-11-27T22:04:24.309Z,100665.75
2022-11-27T22:06:51.001Z,100668.91
2022-11-27T22:09:18.133Z,100667.75
2022-11-27T22:11:46.358Z,100656.97
2022-11-27T22:14:15.328Z,100655.44
2022-11-27T22:16:45.397Z,100650.66
2022-11-27T22:19:14.534Z,100647.19
2022-11-27T22:21:41.501Z,100641.25
2022-11-27T22:24:12.182Z,100639.75
2022-11-27T22:26:43.150Z,100634.63
2022-11-27T22:29:09.463Z,100619.19
2022-11-27T22:31:35.961Z,100619.63
2022-11-27T22:34:02.478Z,100614.88
2022-11-27T22:36:33.778Z,100614.06
2022-11-27T22:39:03.645Z,100625.31
2022-11-27T22:41:32.396Z,100608.25
2022-11-27T22:44:00.390Z,100604.75
2022-11-27T22:46:32.717Z,100601.97
2022-11-27T22:49:01.864Z,100603.22
2022-11-27T22:51:30.346Z,100590.56
2022-11-27T22:53:57.916Z,100585.91
2022-11-27T22:56:25.997Z,100583.22
2022-11-27T22:59:06.105Z,100575.75
2022-11-27T23:01:40.798Z,100580.28
2022-11-27T23:04:07.526Z,100588.75
2022-11-27T23:06:34.141Z,100575.72
2022-11-27T23:09:00.495Z,100582.22
2022-11-27T23:11:28.429Z,100576.25
2022-11-27T23:13:58.475Z,100583.56
2022-11-27T23:16:25.336Z,100598.75
2022-11-27T23:18:51.957Z,100599.22
2022-11-27T23:21:22.165Z,100608.03
2022-11-27T23:23:49.268Z,100608.84
2022-11-27T23:26:19.514Z,100606.53
2022-11-27T23:28:48.403Z,100604.56
2022-11-27T23:31:33.167Z,100602.56
2022-11-27T23:34:01.717Z,100595.81
2022-11-27T23:36:29.434Z,100591.03
2022-11-27T23:38:55.957Z,100593.03
2022-11-27T23:41:24.696Z,100589.00
2022-11-27T23:43:52.728Z,100584.56
2022-11-27T23:46:21.454Z,100578.53
2022-11-27T23:48:48.217Z,100572.50
2022-11-27T23:51:17.541Z,100567.28
2022-11-27T23:53:44.648Z,100564.84
2022-11-27T23:56:15.042Z,100551.59
2022-11-27T23:58:46.677Z,100550.81
